createdAt,value
2019-03-12T00:02:05.409Z,2.67
2019-03-12T00:04:32.782Z,3.13
2019-03-12T00:07:00.222Z,3.33
2019-03-12T00:09:27.724Z,3.57
2019-03-12T00:11:55.117Z,3.90
2019-03-12T00:14:22.497Z,3.67
2019-03-12T00:16:49.973Z,3.53
2019-03-12T00:19:17.415Z,3.20
2019-03-12T00:21:45.147Z,3.23
2019-03-12T00:24:15.077Z,3.37
2019-03-12T00:26:42.544Z,3.13
2019-03-12T00:29:09.987Z,3.67
2019-03-12T00:31:37.467Z,3.30
2019-03-12T00:34:04.843Z,3.40
2019-03-12T00:36:32.272Z,3.10
2019-03-12T00:38:59.682Z,3.67
2019-03-12T00:41:27.197Z,3.97
2019-03-12T00:43:54.582Z,3.70
2019-03-12T00:46:22.042Z,4.00
2019-03-12T00:48:49.406Z,3.53
2019-03-12T00:51:16.868Z,4.37
2019-03-12T00:53:44.247Z,4.20
2019-03-12T00:56:11.677Z,3.93
2019-03-12T00:58:39.037Z,3.60
2019-03-12T01:01:06.492Z,3.70
2019-03-12T01:03:33.892Z,3.60
2019-03-12T01:06:01.287Z,3.57
2019-03-12T01:08:28.737Z,4.23
2019-03-12T01:10:57.654Z,4.50
2019-03-12T01:13:25.089Z,3.97
2019-03-12T01:15:52.562Z,3.87
2019-03-12T01:18:19.997Z,3.83
2019-03-12T01:20:47.353Z,4.17
2019-03-12T01:23:14.867Z,4.50
2019-03-12T01:25:42.252Z,3.90
2019-03-12T01:28:09.707Z,4.40
2019-03-12T01:30:37.068Z,4.83
2019-03-12T01:33:04.493Z,4.47
2019-03-12T01:35:31.927Z,4.20
2019-03-12T01:37:59.357Z,4.17
2019-03-12T01:40:26.779Z,4.37
2019-03-12T01:42:54.239Z,4.33
2019-03-12T01:45:21.652Z,3.57
2019-03-12T01:47:49.088Z,4.37
2019-03-12T01:50:16.446Z,4.57
2019-03-12T01:52:43.867Z,4.73
2019-03-12T01:55:11.373Z,5.10
2019-03-12T01:57:38.882Z,4.13
2019-03-12T02:00:07.884Z,5.03
2019-03-12T02:02:35.307Z,4.27
2019-03-12T02:05:02.685Z,3.97
2019-03-12T02:07:30.115Z,4.50
2019-03-12T02:09:57.547Z,5.17
2019-03-12T02:12:25.037Z,5.67
2019-03-12T02:14:52.418Z,5.07
2019-03-12T02:17:19.829Z,3.60
2019-03-12T02:19:47.167Z,4.67
2019-03-12T02:22:14.598Z,5.10
2019-03-12T02:24:52.063Z,5.53
2019-03-12T02:27:11.272Z,5.17
2019-03-12T02:29:38.627Z,5.67
2019-03-12T02:32:07.065Z,4.13
2019-03-12T02:34:34.515Z,4.80
2019-03-12T02:37:02.187Z,5.07
2019-03-12T02:39:29.634Z,4.77
2019-03-12T02:41:57.056Z,4.97
2019-03-12T02:44:24.522Z,4.63
2019-03-12T02:46:51.918Z,4.40
2019-03-12T02:49:19.359Z,4.83
2019-03-12T02:51:46.739Z,5.83
2019-03-12T02:54:14.173Z,5.77
2019-03-12T02:56:44.453Z,5.40
2019-03-12T02:59:11.935Z,5.10
2019-03-12T03:01:39.383Z,6.13
2019-03-12T03:04:06.828Z,5.63
2019-03-12T03:06:40.612Z,6.80
2019-03-12T03:09:08.032Z,6.77
2019-03-12T03:11:35.408Z,7.27
2019-03-12T03:14:02.812Z,7.90
2019-03-12T03:16:30.189Z,8.17
2019-03-12T03:18:57.578Z,8.57
2019-03-12T03:21:24.958Z,6.87
2019-03-12T03:23:52.419Z,7.53
2019-03-12T03:26:19.887Z,6.23
2019-03-12T03:28:47.338Z,7.27
2019-03-12T03:31:14.729Z,5.70
2019-03-12T03:33:42.254Z,7.87
2019-03-12T03:36:09.691Z,8.53
2019-03-12T03:38:37.110Z,11.07
2019-03-12T03:41:04.644Z,13.13
2019-03-12T03:43:32.078Z,14.80
2019-03-12T03:45:59.475Z,15.20
2019-03-12T03:48:26.955Z,15.27
2019-03-12T03:50:54.409Z,15.73
2019-03-12T03:53:21.816Z,17.73
2019-03-12T03:55:49.196Z,18.83
2019-03-12T03:58:16.617Z,17.47
2019-03-12T04:00:44.024Z,18.43
2019-03-12T04:03:11.471Z,20.67
2019-03-12T04:05:38.889Z,20.07
2019-03-12T04:08:06.387Z,21.90
2019-03-12T04:10:33.777Z,22.73
2019-03-12T04:13:01.149Z,22.00
2019-03-12T04:15:28.642Z,22.47
2019-03-12T04:17:56.055Z,23.20
2019-03-12T04:20:23.478Z,21.17
2019-03-12T04:22:50.849Z,20.73
2019-03-12T04:25:18.305Z,21.27
2019-03-12T04:27:45.722Z,19.80
2019-03-12T04:30:13.393Z,18.83
2019-03-12T04:32:40.763Z,18.83
2019-03-12T04:35:09.514Z,17.20
2019-03-12T04:37:36.872Z,17.80
2019-03-12T04:40:04.988Z,16.63
2019-03-12T04:42:32.407Z,17.23
2019-03-12T04:44:59.857Z,15.80
2019-03-12T04:47:27.267Z,15.77
2019-03-12T04:49:54.668Z,15.43
2019-03-12T04:52:22.027Z,13.67
2019-03-12T04:54:49.477Z,14.73
2019-03-12T04:57:16.806Z,12.80
2019-03-12T04:59:44.215Z,11.23
2019-03-12T05:02:11.587Z,11.57
2019-03-12T05:04:38.977Z,10.93
2019-03-12T05:07:06.367Z,9.60
2019-03-12T05:09:34.168Z,11.07
2019-03-12T05:12:01.802Z,9.87
2019-03-12T05:14:32.827Z,10.77
2019-03-12T05:17:08.829Z,9.37
2019-03-12T05:19:37.957Z,9.43
2019-03-12T05:22:08.166Z,7.57
2019-03-12T05:24:35.646Z,6.93
2019-03-12T05:27:03.047Z,7.77
2019-03-12T05:29:30.491Z,6.87
2019-03-12T05:31:57.872Z,6.80
2019-03-12T05:34:25.340Z,6.87
2019-03-12T05:36:52.817Z,7.60
2019-03-12T05:39:20.238Z,7.57
2019-03-12T05:41:47.652Z,8.37
2019-03-12T05:44:15.021Z,7.43
2019-03-12T05:46:42.447Z,7.87
2019-03-12T05:49:09.858Z,7.73
2019-03-12T05:51:37.307Z,7.00
2019-03-12T05:54:04.751Z,7.60
2019-03-12T05:56:32.347Z,6.87
2019-03-12T05:58:59.952Z,7.30
2019-03-12T06:01:27.665Z,7.27
2019-03-12T06:03:55.228Z,8.50
2019-03-12T06:06:22.764Z,7.33
2019-03-12T06:08:50.251Z,7.07
2019-03-12T06:11:17.843Z,8.33
2019-03-12T06:13:45.290Z,7.13
2019-03-12T06:16:12.726Z,8.30
2019-03-12T06:18:40.241Z,5.77
2019-03-12T06:21:19.066Z,6.70
2019-03-12T06:23:56.222Z,6.20
2019-03-12T06:26:25.701Z,6.67
2019-03-12T06:28:53.262Z,6.10
2019-03-12T06:31:30.732Z,7.20
2019-03-12T06:34:06.000Z,7.80
2019-03-12T06:36:58.532Z,6.70
2019-03-12T06:39:45.483Z,7.80
2019-03-12T06:42:34.827Z,8.03
2019-03-12T06:45:13.747Z,7.70
2019-03-12T06:48:09.087Z,7.33
2019-03-12T06:50:59.196Z,6.47
2019-03-12T06:53:58.283Z,8.13
2019-03-12T06:56:48.037Z,7.47
2019-03-12T06:59:29.052Z,7.63
2019-03-12T07:02:18.872Z,8.43
2019-03-12T07:05:18.555Z,8.07
2019-03-12T07:08:21.172Z,8.00
2019-03-12T07:11:11.634Z,8.00
2019-03-12T07:13:48.096Z,7.53
2019-03-12T07:16:41.068Z,8.07
2019-03-12T07:19:28.033Z,8.27
2019-03-12T07:22:13.610Z,7.40
2019-03-12T07:25:19.044Z,7.87
2019-03-12T07:28:18.181Z,5.97
2019-03-12T07:31:24.766Z,6.23
2019-03-12T07:34:22.402Z,6.93
2019-03-12T07:37:13.171Z,5.97
2019-03-12T07:40:01.502Z,6.30
2019-03-12T07:42:47.203Z,6.27
2019-03-12T07:45:24.252Z,6.17
2019-03-12T07:48:23.202Z,5.63
2019-03-12T07:51:07.342Z,5.13
2019-03-12T07:54:03.123Z,5.17
2019-03-12T07:56:56.257Z,6.07
2019-03-12T07:59:39.443Z,6.20
2019-03-12T08:02:18.303Z,5.50
2019-03-12T08:05:04.091Z,7.00
2019-03-12T08:07:53.743Z,5.90
2019-03-12T08:10:33.810Z,4.50
2019-03-12T08:13:15.760Z,5.47
2019-03-12T08:16:06.496Z,7.00
2019-03-12T08:18:58.512Z,6.33
2019-03-12T08:22:00.699Z,5.23
2019-03-12T08:24:36.675Z,3.87
2019-03-12T08:27:27.812Z,5.57
2019-03-12T08:30:09.371Z,5.90
2019-03-12T08:32:54.902Z,5.30
2019-03-12T08:35:54.242Z,5.00
2019-03-12T08:38:46.452Z,4.73
2019-03-12T08:41:42.503Z,4.33
2019-03-12T08:44:37.462Z,4.77
2019-03-12T08:47:12.775Z,4.43
2019-03-12T08:50:07.587Z,3.90
2019-03-12T08:52:53.435Z,2.97
2019-03-12T08:55:48.078Z,3.57
2019-03-12T08:58:35.418Z,2.50
2019-03-12T09:01:20.898Z,4.17
2019-03-12T09:04:14.090Z,3.60
2019-03-12T09:06:47.415Z,3.37
2019-03-12T09:09:24.956Z,2.97
2019-03-12T09:11:57.533Z,3.03
2019-03-12T09:14:50.915Z,2.50
2019-03-12T09:17:36.635Z,2.80
2019-03-12T09:20:42.796Z,2.63
2019-03-12T09:23:30.736Z,2.93
2019-03-12T09:26:08.909Z,2.50
2019-03-12T09:29:01.796Z,2.47
2019-03-12T09:31:50.975Z,2.80
2019-03-12T09:34:36.583Z,3.33
2019-03-12T09:37:32.317Z,2.10
2019-03-12T09:40:25.940Z,2.67
2019-03-12T09:43:12.789Z,2.23
2019-03-12T09:46:13.675Z,2.47
2019-03-12T09:49:01.558Z,3.23
2019-03-12T09:51:56.135Z,2.40
2019-03-12T09:54:49.195Z,2.57
2019-03-12T09:57:42.115Z,2.80
2019-03-12T10:00:29.195Z,2.37
2019-03-12T10:03:08.535Z,2.43
2019-03-12T10:06:04.615Z,2.70
2019-03-12T10:08:45.076Z,3.30
2019-03-12T10:11:31.015Z,2.50
2019-03-12T10:14:24.939Z,2.50
2019-03-12T10:17:09.234Z,2.10
2019-03-12T10:19:51.196Z,2.60
2019-03-12T10:22:38.616Z,2.97
2019-03-12T10:25:32.195Z,2.30
2019-03-12T10:28:23.076Z,2.07
2019-03-12T10:31:10.335Z,1.97
2019-03-12T10:34:28.791Z,2.90
2019-03-12T10:37:12.112Z,1.80
2019-03-12T10:40:23.270Z,2.90
2019-03-12T10:43:19.795Z,2.20
2019-03-12T10:46:16.391Z,2.20
2019-03-12T10:48:52.879Z,1.90
2019-03-12T10:51:21.114Z,2.23
2019-03-12T10:53:49.313Z,2.30
2019-03-12T10:56:19.595Z,2.23
2019-03-12T10:58:53.214Z,2.13
2019-03-12T11:01:32.414Z,1.90
2019-03-12T11:04:01.916Z,2.00
2019-03-12T11:06:29.915Z,2.27
2019-03-12T11:09:05.461Z,1.57
2019-03-12T11:11:36.698Z,2.20
2019-03-12T11:14:10.484Z,1.80
2019-03-12T11:16:39.395Z,1.90
2019-03-12T11:19:08.294Z,2.53
2019-03-12T11:22:18.671Z,1.63
2019-03-12T11:25:27.253Z,2.07
2019-03-12T11:28:11.315Z,1.87
2019-03-12T11:30:47.355Z,2.20
2019-03-12T11:33:17.631Z,2.40
2019-03-12T11:35:48.476Z,2.50
2019-03-12T11:38:26.433Z,2.30
2019-03-12T11:40:55.444Z,2.30
2019-03-12T11:43:33.310Z,2.60
2019-03-12T11:46:00.823Z,2.27
2019-03-12T11:48:34.312Z,2.23
2019-03-12T11:51:13.732Z,3.43
2019-03-12T11:53:41.455Z,2.27
2019-03-12T11:56:11.496Z,2.80
2019-03-12T11:58:40.201Z,2.40
2019-03-12T12:01:09.810Z,2.43
2019-03-12T12:03:43.354Z,1.70
2019-03-12T12:06:11.315Z,2.40
2019-03-12T12:08:58.435Z,2.20
2019-03-12T12:11:27.135Z,1.97
2019-03-12T12:14:01.257Z,2.00
2019-03-12T12:16:36.972Z,2.50
2019-03-12T12:19:38.566Z,1.67
2019-03-12T12:22:44.725Z,2.53
2019-03-12T12:25:35.356Z,2.83
2019-03-12T12:28:03.351Z,1.83
2019-03-12T12:31:10.434Z,2.70
2019-03-12T12:34:18.734Z,2.27
2019-03-12T12:37:26.140Z,1.83
2019-03-12T12:41:38.736Z,1.93
2019-03-12T12:43:10.256Z,2.73
2019-03-12T12:46:25.354Z,1.80
2019-03-12T12:49:19.834Z,2.00
2019-03-12T12:52:10.674Z,2.47
2019-03-12T12:54:42.651Z,2.73
2019-03-12T12:57:16.834Z,2.23
2019-03-12T12:59:46.075Z,2.53
2019-03-12T13:02:23.756Z,1.93
2019-03-12T13:05:25.275Z,2.37
2019-03-12T13:08:09.798Z,1.87
2019-03-12T13:14:57.774Z,1.80
2019-03-12T13:17:06.010Z,1.70
2019-03-12T13:19:45.365Z,2.33
2019-03-12T13:22:53.976Z,2.20
2019-03-12T13:25:05.315Z,2.40
2019-03-12T13:27:42.182Z,2.30
2019-03-12T13:30:21.139Z,2.00
2019-03-12T13:33:18.323Z,2.20
2019-03-12T13:36:39.099Z,1.83
2019-03-12T13:38:26.863Z,1.90
2019-03-12T13:59:22.450Z,1.70
2019-03-12T14:21:32.659Z,1.37
2019-03-12T14:56:24.805Z,2.10
2019-03-12T15:00:01.149Z,2.10
2019-03-12T15:11:00.036Z,1.27
2019-03-12T15:13:59.617Z,1.20
2019-03-12T15:21:02.047Z,1.70
2019-03-12T15:24:23.108Z,2.00
2019-03-12T15:26:27.144Z,1.40
2019-03-12T15:26:58.055Z,1.60
2019-03-12T15:29:31.525Z,1.60
2019-03-12T15:32:26.046Z,2.17
2019-03-12T15:38:47.815Z,1.83
2019-03-12T15:49:33.952Z,1.87
2019-03-12T16:12:53.844Z,1.60
2019-03-12T16:19:53.565Z,1.37
2019-03-12T16:54:36.613Z,1.40
2019-03-12T16:57:04.476Z,1.17
2019-03-12T16:59:38.300Z,1.73
2019-03-12T17:05:05.809Z,1.50
2019-03-12T17:11:13.849Z,1.40
2019-03-12T17:14:38.899Z,1.83
2019-03-12T17:18:00.969Z,1.27
2019-03-12T17:21:39.566Z,1.60
2019-03-12T17:24:33.794Z,1.30
2019-03-12T17:27:51.696Z,1.10
2019-03-12T17:31:00.892Z,1.30
2019-03-12T17:34:12.751Z,1.47
2019-03-12T17:37:16.757Z,1.60
2019-03-12T17:40:10.940Z,1.20
2019-03-12T17:43:23.358Z,1.03
2019-03-12T17:46:39.634Z,1.00
2019-03-12T17:50:16.314Z,1.30
2019-03-12T17:53:09.051Z,1.10
2019-03-12T17:56:27.178Z,2.23
2019-03-12T18:02:41.520Z,1.40
2019-03-12T18:05:54.972Z,1.83
2019-03-12T18:08:25.926Z,1.10
2019-03-12T18:11:32.245Z,1.30
2019-03-12T18:14:47.357Z,0.90
2019-03-12T18:25:26.589Z,0.97
2019-03-12T18:28:35.611Z,1.00
2019-03-12T18:31:32.086Z,1.17
2019-03-12T18:34:25.693Z,1.40
2019-03-12T18:37:19.441Z,0.80
2019-03-12T18:40:58.490Z,1.00
2019-03-12T18:43:26.561Z,1.63
2019-03-12T18:46:15.342Z,0.83
2019-03-12T18:48:53.411Z,1.07
2019-03-12T18:51:21.246Z,0.87
2019-03-12T18:53:49.161Z,1.57
2019-03-12T18:56:17.091Z,1.63
2019-03-12T18:58:45.257Z,0.90
2019-03-12T19:01:17.430Z,0.83
2019-03-12T19:03:45.461Z,1.13
2019-03-12T19:06:13.471Z,0.93
2019-03-12T19:08:47.485Z,1.00
2019-03-12T19:11:11.711Z,1.00
2019-03-12T19:13:40.601Z,1.07
2019-03-12T19:16:08.567Z,1.27
2019-03-12T19:18:36.591Z,0.90
2019-03-12T19:21:04.536Z,1.00
2019-03-12T19:23:33.751Z,0.70
2019-03-12T19:26:01.612Z,0.90
2019-03-12T19:28:29.877Z,1.00
2019-03-12T19:31:13.882Z,1.00
2019-03-12T19:33:43.522Z,1.00
2019-03-12T19:36:11.521Z,1.47
2019-03-12T19:38:39.621Z,1.80
2019-03-12T19:41:07.761Z,0.90
2019-03-12T19:43:36.117Z,0.97
2019-03-12T19:46:04.371Z,0.97
2019-03-12T19:48:32.239Z,0.97
2019-03-12T19:51:00.093Z,1.47
2019-03-12T19:53:28.067Z,1.03
2019-03-12T19:55:56.093Z,1.27
2019-03-12T19:58:28.204Z,1.03
2019-03-12T20:00:55.986Z,1.00
2019-03-12T20:03:24.216Z,1.20
2019-03-12T20:05:52.177Z,1.10
2019-03-12T20:08:20.151Z,1.33
2019-03-12T20:11:17.507Z,1.17
2019-03-12T20:14:34.217Z,1.47
2019-03-12T20:18:04.486Z,1.27
2019-03-12T20:21:24.011Z,1.10
2019-03-12T20:24:36.269Z,1.23
2019-03-12T20:27:32.551Z,1.20
2019-03-12T20:30:36.287Z,1.37
2019-03-12T20:33:31.131Z,1.30
2019-03-12T20:36:54.573Z,1.37
2019-03-12T20:39:59.159Z,1.33
2019-03-12T20:43:20.176Z,1.30
2019-03-12T20:46:37.187Z,1.27
2019-03-12T20:49:45.146Z,1.33
2019-03-12T20:52:57.489Z,1.17
2019-03-12T20:56:00.961Z,0.90
2019-03-12T20:59:06.578Z,1.20
2019-03-12T21:02:10.451Z,1.47
2019-03-12T21:05:23.600Z,1.30
2019-03-12T21:08:44.331Z,1.13
2019-03-12T21:12:11.291Z,1.03
2019-03-12T21:15:20.496Z,0.80
2019-03-12T21:18:50.656Z,1.00
2019-03-12T21:22:03.128Z,1.20
2019-03-12T21:24:56.494Z,1.30
2019-03-12T21:28:04.391Z,1.27
2019-03-12T21:30:32.251Z,1.07
2019-03-12T21:33:01.080Z,1.20
2019-03-12T21:35:29.011Z,1.50
2019-03-12T21:37:56.817Z,1.43
2019-03-12T21:40:24.699Z,1.40
2019-03-12T21:42:52.401Z,1.10
2019-03-12T21:45:20.331Z,1.27
2019-03-12T21:47:48.130Z,1.60
2019-03-12T21:50:16.036Z,1.17
2019-03-12T21:52:45.708Z,1.00
2019-03-12T21:55:13.647Z,1.10
2019-03-12T21:57:41.271Z,1.57
2019-03-12T22:00:12.071Z,1.27
2019-03-12T22:02:39.506Z,1.67
2019-03-12T22:05:07.191Z,1.57
2019-03-12T22:07:34.690Z,1.07
2019-03-12T22:10:02.187Z,1.40
2019-03-12T22:12:32.793Z,1.57
2019-03-12T22:15:02.756Z,1.30
2019-03-12T22:17:30.221Z,2.47
2019-03-12T22:19:57.616Z,1.30
2019-03-12T22:22:38.496Z,1.40
2019-03-12T22:25:07.731Z,1.63
2019-03-12T22:27:35.155Z,1.60
2019-03-12T22:30:04.290Z,1.50
2019-03-12T22:32:31.806Z,1.63
2019-03-12T22:34:59.247Z,1.60
2019-03-12T22:37:26.671Z,1.10
2019-03-12T22:39:54.089Z,1.47
2019-03-12T22:42:21.556Z,2.03
2019-03-12T22:44:48.956Z,1.80
2019-03-12T22:47:16.430Z,1.37
2019-03-12T22:49:46.361Z,1.43
2019-03-12T22:52:13.811Z,1.70
2019-03-12T22:54:43.698Z,1.17
2019-03-12T22:57:12.564Z,1.00
2019-03-12T22:59:40.046Z,1.30
2019-03-12T23:02:07.702Z,1.03
2019-03-12T23:04:37.818Z,0.90
2019-03-12T23:07:06.331Z,0.70
2019-03-12T23:09:33.836Z,0.90
2019-03-12T23:12:01.438Z,1.00
2019-03-12T23:14:29.996Z,0.80
2019-03-12T23:16:57.647Z,1.20
2019-03-12T23:19:25.324Z,1.23
